Time;durP1;ratioP1;P1;durP2;ratioP2;P2;SDS_P1;SDS_P2;PMS_P1;PMS_P2;Temp;Humidity;BMP_temperature;BMP_pressure;BME280_temperature;BME280_humidity;BME280_pressure;Samples;Min_cycle;Max_cycle;Signal;HPM_P1;HPM_P2
2022/09/22 00:00:24;;;;;;;47.17;40.90;;;;;;;5.22;100.00;102399.75;5116705;28;20020;-42
2022/09/22 00:02:50;;;;;;;45.28;40.45;;;;;;;5.15;100.00;102397.53;5116871;28;20053;-42
2022/09/22 00:05:15;;;;;;;41.15;36.72;;;;;;;5.09;100.00;102392.81;5116241;28;20034;-42
2022/09/22 00:07:40;;;;;;;44.20;39.45;;;;;;;5.11;100.00;102395.50;5117160;28;20077;-43
2022/09/22 00:10:06;;;;;;;42.80;38.33;;;;;;;5.05;100.00;102392.50;5116793;28;20023;-45
2022/09/22 00:12:32;;;;;;;43.53;38.83;;;;;;;5.05;100.00;102390.81;5115888;28;20463;-44
2022/09/22 00:14:57;;;;;;;42.20;37.17;;;;;;;5.04;100.00;102389.03;5116750;28;20023;-45
2022/09/22 00:17:22;;;;;;;39.03;34.90;;;;;;;4.95;100.00;102394.31;5116507;28;20102;-44
2022/09/22 00:19:48;;;;;;;40.95;36.70;;;;;;;4.94;100.00;102387.44;5116076;28;20032;-42
2022/09/22 00:22:13;;;;;;;43.80;37.33;;;;;;;4.92;100.00;102383.88;5116224;28;20035;-46
2022/09/22 00:24:39;;;;;;;43.75;39.13;;;;;;;4.94;100.00;102382.34;5115851;28;20028;-47
2022/09/22 00:27:05;;;;;;;46.55;41.28;;;;;;;4.93;100.00;102385.66;5116617;28;20443;-43
2022/09/22 00:29:30;;;;;;;46.97;41.90;;;;;;;5.00;100.00;102388.69;5116260;28;20027;-46
2022/09/22 00:31:56;;;;;;;53.22;46.63;;;;;;;5.08;100.00;102395.25;5115908;28;20020;-43
2022/09/22 00:34:24;;;;;;;52.92;44.10;;;;;;;5.07;100.00;102394.38;5116325;28;20020;-46
2022/09/22 00:36:49;;;;;;;51.80;42.83;;;;;;;5.06;100.00;102391.69;5116395;28;20475;-43
2022/09/22 00:39:16;;;;;;;44.22;39.22;;;;;;;4.99;100.00;102392.88;5115264;28;20058;-43
2022/09/22 00:41:46;;;;;;;49.55;43.90;;;;;;;5.05;100.00;102392.50;5116208;28;20023;-43
2022/09/22 00:44:33;;;;;;;44.92;37.13;;;;;;;4.94;100.00;102392.56;5115964;28;20030;-46
2022/09/22 00:47:12;;;;;;;40.47;36.17;;;;;;;4.94;100.00;102386.53;5115342;28;20034;-42
2022/09/22 00:49:52;;;;;;;40.95;36.50;;;;;;;4.89;100.00;102388.75;5116268;28;20024;-43
2022/09/22 00:52:28;;;;;;;40.40;35.63;;;;;;;4.89;100.00;102386.19;5115870;28;20027;-44
2022/09/22 00:54:57;;;;;;;40.47;36.05;;;;;;;4.91;100.00;102387.19;5115526;28;20030;-43
2022/09/22 00:57:27;;;;;;;45.13;40.30;;;;;;;4.98;100.00;102383.44;5115960;28;20395;-43
2022/09/22 00:59:53;;;;;;;46.33;37.60;;;;;;;4.93;100.00;102379.63;5115138;28;20024;-45
2022/09/22 01:02:19;;;;;;;39.25;35.03;;;;;;;4.84;100.00;102372.19;5115646;28;20028;-44
2022/09/22 01:04:48;;;;;;;41.88;37.38;;;;;;;4.90;100.00;102371.75;5118528;27;20027;-42
2022/09/22 01:07:14;;;;;;;40.42;35.70;;;;;;;4.78;100.00;102361.47;5114669;28;20024;-44
2022/09/22 01:09:39;;;;;;;39.45;35.25;;;;;;;4.75;100.00;102367.25;5115736;28;20019;-42
2022/09/22 01:12:05;;;;;;;42.28;37.70;;;;;;;4.85;100.00;102366.25;5115798;28;20500;-43
2022/09/22 01:14:49;;;;;;;40.92;36.35;;;;;;;4.79;100.00;102360.72;5114691;28;20023;-42
2022/09/22 01:17:20;;;;;;;39.80;35.60;;;;;;;4.77;100.00;102363.13;5115222;28;20023;-43
2022/09/22 01:20:11;;;;;;;39.17;34.92;;;;;;;4.72;100.00;102361.00;5115790;28;20050;-44
2022/09/22 01:22:48;;;;;;;40.25;35.47;;;;;;;4.68;100.00;102353.88;5114676;28;20042;-44
2022/09/22 01:25:31;;;;;;;43.25;38.80;;;;;;;4.75;100.00;102351.00;5115320;28;20024;-43
2022/09/22 01:28:29;;;;;;;41.45;36.85;;;;;;;4.77;100.00;102354.56;5114621;28;20106;-43
2022/09/22 01:31:28;;;;;;;48.53;41.90;;;;;;;4.79;100.00;102353.03;5115529;28;20115;-43
2022/09/22 01:34:12;;;;;;;49.53;43.92;;;;;;;4.78;100.00;102352.13;5115283;28;20027;-43
2022/09/22 01:36:43;;;;;;;48.25;40.50;;;;;;;4.80;100.00;102347.13;5114673;28;20102;-45
2022/09/22 01:39:27;;;;;;;43.35;38.78;;;;;;;4.72;100.00;102348.22;5114846;28;20062;-45
2022/09/22 01:41:59;;;;;;;42.97;38.40;;;;;;;4.64;100.00;102345.06;5114433;28;20039;-43
2022/09/22 01:44:31;;;;;;;44.85;40.05;;;;;;;4.67;100.00;102350.41;5114868;28;20026;-43
2022/09/22 01:47:04;;;;;;;41.13;36.72;;;;;;;4.53;100.00;102345.88;5115353;28;20023;-43
2022/09/22 01:49:34;;;;;;;37.28;33.45;;;;;;;4.50;100.00;102338.00;5114166;28;20027;-43
2022/09/22 01:52:07;;;;;;;41.08;36.72;;;;;;;4.48;100.00;102336.97;5114787;28;20478;-43
2022/09/22 01:54:44;;;;;;;42.00;37.53;;;;;;;4.48;100.00;102337.88;5115007;28;20028;-42
2022/09/22 01:57:16;;;;;;;46.28;40.90;;;;;;;4.54;100.00;102335.78;5113901;28;20069;-45
2022/09/22 01:59:49;;;;;;;51.17;42.13;;;;;;;4.58;100.00;102335.28;5114793;28;20050;-43
2022/09/22 02:02:36;;;;;;;44.20;39.42;;;;;;;4.51;100.00;102329.56;5114081;28;20035;-43
2022/09/22 02:05:05;;;;;;;49.22;39.55;;;;;;;4.48;100.00;102325.13;5113914;28;20051;-44
2022/09/22 02:07:38;;;;;;;44.42;37.97;;;;;;;4.37;100.00;102328.50;5114377;28;20028;-43
2022/09/22 02:10:08;;;;;;;45.42;40.22;;;;;;;4.41;100.00;102325.41;5113710;28;20501;-45
2022/09/22 02:12:35;;;;;;;43.88;39.25;;;;;;;4.32;100.00;102319.59;5114626;28;20114;-43
2022/09/22 02:15:01;;;;;;;46.80;40.65;;;;;;;4.26;100.00;102320.88;5114390;28;20352;-42
2022/09/22 02:17:26;;;;;;;44.70;39.90;;;;;;;4.28;100.00;102321.00;5113377;28;20471;-43
2022/09/22 02:19:52;;;;;;;46.97;41.88;;;;;;;4.28;100.00;102314.22;5114251;28;20026;-42
2022/09/22 02:22:17;;;;;;;52.00;44.92;;;;;;;4.26;100.00;102314.88;5114113;28;20042;-44
2022/09/22 02:24:44;;;;;;;49.20;43.88;;;;;;;4.34;100.00;102313.81;5113650;28;20128;-45
2022/09/22 02:27:26;;;;;;;50.25;44.88;;;;;;;4.35;100.00;102307.03;5114120;28;20024;-42
2022/09/22 02:30:02;;;;;;;51.67;44.83;;;;;;;4.33;100.00;102306.06;5114065;28;20020;-44
2022/09/22 02:32:29;;;;;;;50.75;44.72;;;;;;;4.39;100.00;102309.06;5113247;28;20397;-42
2022/09/22 02:34:55;;;;;;;51.65;44.88;;;;;;;4.32;100.00;102306.81;5114328;28;20110;-42
2022/09/22 02:37:38;;;;;;;51.25;45.60;;;;;;;4.37;100.00;102308.94;5113741;28;20054;-43
2022/09/22 02:40:13;;;;;;;44.42;39.38;;;;;;;4.24;100.00;102299.44;5113231;28;20138;-44
2022/09/22 02:42:41;;;;;;;49.80;44.40;;;;;;;4.26;100.00;102297.91;5113815;28;20049;-43
2022/09/22 02:45:12;;;;;;;;;;;;;;;4.32;100.00;102294.06;5114341;28;20032;-42
2022/09/22 02:48:16;;;;;;;47.28;42.33;;;;;;;4.26;100.00;102295.34;5114087;28;19918;-43
2022/09/22 02:50:42;;;;;;;53.28;47.53;;;;;;;4.28;100.00;102292.91;5112974;28;20069;-42
2022/09/22 02:53:13;;;;;;;48.90;43.53;;;;;;;4.21;100.00;102291.56;5112812;28;20023;-42
2022/09/22 02:55:39;;;;;;;47.88;42.80;;;;;;;4.15;100.00;102287.63;5113698;28;20443;-44
2022/09/22 02:58:04;;;;;;;49.58;42.55;;;;;;;4.16;100.00;102285.19;5113932;28;20058;-45
2022/09/22 03:00:31;;;;;;;48.22;42.45;;;;;;;4.18;100.00;102285.31;5112839;28;20100;-44
2022/09/22 03:02:56;;;;;;;52.03;44.80;;;;;;;4.09;100.00;102283.81;5113707;28;20040;-42
2022/09/22 03:05:21;;;;;;;51.55;45.58;;;;;;;4.12;100.00;102284.06;5113428;28;20020;-44
2022/09/22 03:07:47;;;;;;;55.20;45.65;;;;;;;4.11;100.00;102279.72;5112322;27;20024;-42
2022/09/22 03:10:12;;;;;;;47.88;41.67;;;;;;;4.04;100.00;102284.22;5113259;28;20110;-44
2022/09/22 03:12:41;;;;;;;47.42;42.10;;;;;;;4.01;100.00;102282.31;5112445;28;20027;-44
2022/09/22 03:15:11;;;;;;;47.85;42.60;;;;;;;4.07;100.00;102281.94;5112857;28;20027;-43
2022/09/22 03:17:37;;;;;;;50.75;44.97;;;;;;;4.07;100.00;102277.69;5113237;28;20416;-43
2022/09/22 03:20:05;;;;;;;49.35;44.05;;;;;;;4.09;100.00;102285.47;5113396;28;20047;-42
2022/09/22 03:22:30;;;;;;;46.47;41.50;;;;;;;4.02;100.00;102280.66;5112623;28;20031;-42
2022/09/22 03:24:56;;;;;;;42.38;37.80;;;;;;;3.93;100.00;102284.25;5113683;28;20024;-42
2022/09/22 03:27:21;;;;;;;42.28;36.72;;;;;;;3.84;100.00;102275.88;5112628;28;20023;-46
2022/09/22 03:29:46;;;;;;;44.80;40.15;;;;;;;3.99;100.00;102270.19;5113461;28;20528;-43
2022/09/22 03:32:12;;;;;;;58.90;46.63;;;;;;;4.10;100.00;102271.94;5113012;28;20115;-43
2022/09/22 03:34:37;;;;;;;50.65;43.63;;;;;;;4.06;100.00;102264.81;5112592;28;20034;-43
2022/09/22 03:37:02;;;;;;;48.60;42.45;;;;;;;4.09;100.00;102265.06;5113153;28;20088;-42
2022/09/22 03:39:28;;;;;;;46.78;41.13;;;;;;;4.01;100.00;102266.13;5112972;28;20475;-44
2022/09/22 03:41:53;;;;;;;46.88;41.70;;;;;;;4.07;100.00;102257.28;5112561;28;20024;-42
2022/09/22 03:44:18;;;;;;;49.30;43.10;;;;;;;4.06;100.00;102259.72;5113149;28;20416;-45
2022/09/22 03:46:43;;;;;;;47.10;42.00;;;;;;;4.06;100.00;102267.38;5113575;28;20027;-43
2022/09/22 03:49:09;;;;;;;48.17;42.97;;;;;;;4.08;100.00;102266.72;5112193;28;20019;-43
2022/09/22 03:51:35;;;;;;;47.65;41.45;;;;;;;4.06;100.00;102270.81;5113148;28;20023;-46
2022/09/22 03:54:00;;;;;;;46.47;41.47;;;;;;;4.03;100.00;102268.03;5113379;28;20137;-43
2022/09/22 03:56:26;;;;;;;48.92;43.55;;;;;;;4.06;100.00;102264.81;5111997;28;20059;-43
2022/09/22 03:58:51;;;;;;;49.00;41.60;;;;;;;4.00;100.00;102264.34;5113128;28;20121;-42
2022/09/22 04:01:17;;;;;;;47.47;42.38;;;;;;;4.01;100.00;102267.00;5112859;28;20490;-43
2022/09/22 04:03:42;;;;;;;50.20;44.53;;;;;;;4.03;100.00;102260.38;5112195;28;20168;-43
2022/09/22 04:06:07;;;;;;;49.90;44.28;;;;;;;4.04;100.00;102258.69;5112697;28;20382;-42
2022/09/22 04:08:33;;;;;;;53.70;47.30;;;;;;;4.04;100.00;102261.25;5113148;28;20452;-43
2022/09/22 04:10:59;;;;;;;50.38;44.88;;;;;;;3.95;100.00;102251.22;5112317;28;20032;-43
2022/09/22 04:13:25;;;;;;;51.03;44.72;;;;;;;3.98;100.00;102255.66;5112901;28;20027;-42
2022/09/22 04:15:50;;;;;;;48.75;43.42;;;;;;;3.98;100.00;102255.66;5113015;28;20481;-43
2022/09/22 04:18:16;;;;;;;47.53;42.45;;;;;;;3.93;100.00;102252.75;5111970;28;20031;-44
2022/09/22 04:20:45;;;;;;;48.78;41.22;;;;;;;3.86;100.00;102248.84;5112895;28;20390;-44
2022/09/22 04:23:11;;;;;;;50.50;45.00;;;;;;;3.92;100.00;102251.84;5112803;28;20057;-45
2022/09/22 04:25:37;;;;;;;56.15;48.28;;;;;;;3.89;100.00;102246.53;5115939;28;20026;-42
2022/09/22 04:28:03;;;;;;;54.45;47.10;;;;;;;3.82;100.00;102249.34;5116535;28;20016;-45
2022/09/22 04:30:29;;;;;;;54.35;48.53;;;;;;;3.85;100.00;102249.59;5116282;28;20051;-43
2022/09/22 04:32:54;;;;;;;62.42;52.88;;;;;;;3.88;100.00;102248.97;5115720;28;20110;-43
2022/09/22 04:35:19;;;;;;;57.50;50.53;;;;;;;3.78;100.00;102243.13;5116094;28;20027;-44
2022/09/22 04:37:44;;;;;;;64.78;54.05;;;;;;;3.93;100.00;102243.44;5115876;28;20065;-42
2022/09/22 04:40:11;;;;;;;55.88;49.80;;;;;;;3.74;100.00;102240.19;5116138;28;20386;-45
2022/09/22 04:42:37;;;;;;;62.40;54.47;;;;;;;3.83;100.00;102246.03;5116630;28;20500;-43
2022/09/22 04:45:05;;;;;;;61.42;53.17;;;;;;;3.81;100.00;102246.69;5115645;28;20131;-42
2022/09/22 04:47:31;;;;;;;59.13;52.65;;;;;;;3.75;100.00;102242.88;5115969;28;20051;-42
2022/09/22 04:49:56;;;;;;;56.38;50.17;;;;;;;3.79;100.00;102234.69;5116088;28;20062;-43
2022/09/22 04:52:22;;;;;;;58.78;49.72;;;;;;;3.73;100.00;102248.63;5115360;28;20030;-43
2022/09/22 04:54:47;;;;;;;58.80;52.05;;;;;;;3.77;100.00;102238.78;5116190;28;20126;-42
2022/09/22 04:57:13;;;;;;;60.50;49.85;;;;;;;3.74;100.00;102247.84;5115875;28;20027;-43
2022/09/22 04:59:38;;;;;;;67.97;54.25;;;;;;;3.71;100.00;102248.50;5115151;28;20068;-43
2022/09/22 05:02:03;;;;;;;61.03;53.95;;;;;;;3.74;100.00;102245.31;5115905;28;20474;-43
2022/09/22 05:04:29;;;;;;;66.05;55.13;;;;;;;3.77;100.00;102248.09;5115620;28;20023;-42
2022/09/22 05:06:54;;;;;;;54.58;48.88;;;;;;;3.74;100.00;102247.84;5115227;28;20016;-43
2022/09/22 05:09:19;;;;;;;47.88;42.65;;;;;;;3.53;100.00;102250.47;5118167;27;20466;-42
2022/09/22 05:11:47;;;;;;;51.80;44.05;;;;;;;3.55;100.00;102248.94;5115793;28;20051;-44
2022/09/22 05:14:13;;;;;;;;;;;;;;;3.66;100.00;102251.47;5115068;28;20023;-43
2022/09/22 05:16:38;;;;;;;54.20;47.92;;;;;;;3.57;100.00;102247.38;5115613;28;20472;-42
2022/09/22 05:19:03;;;;;;;57.88;50.55;;;;;;;3.62;100.00;102243.53;5115475;28;20016;-43
2022/09/22 05:21:28;;;;;;;60.78;51.92;;;;;;;3.65;100.00;102254.78;5114314;28;20027;-44
2022/09/22 05:23:54;;;;;;;58.97;49.80;;;;;;;3.59;100.00;102255.16;5115538;28;20157;-43
2022/09/22 05:26:20;;;;;;;56.70;50.47;;;;;;;3.59;100.00;102255.16;5115144;28;20028;-47
2022/09/22 05:28:45;;;;;;;60.40;52.88;;;;;;;3.65;100.00;102252.22;5114736;28;20027;-44
2022/09/22 05:31:11;;;;;;;66.18;52.58;;;;;;;3.68;100.00;102252.47;5115196;28;20031;-43
2022/09/22 05:33:36;;;;;;;55.63;49.58;;;;;;;3.56;100.00;102250.69;5115205;28;20077;-44
2022/09/22 05:36:01;;;;;;;56.72;49.58;;;;;;;3.67;100.00;102253.22;5113595;28;20370;-43
2022/09/22 05:38:27;;;;;;;58.88;52.53;;;;;;;3.70;100.00;102250.94;5115107;28;20096;-42
2022/09/22 05:40:53;;;;;;;60.83;51.45;;;;;;;3.61;100.00;102258.72;5114935;28;20085;-44
2022/09/22 05:43:18;;;;;;;63.55;52.22;;;;;;;3.61;100.00;102254.50;5114143;28;20032;-43
2022/09/22 05:45:43;;;;;;;65.15;54.40;;;;;;;3.65;100.00;102258.19;5115007;28;20012;-44
2022/09/22 05:48:09;;;;;;;59.15;52.70;;;;;;;3.62;100.00;102261.41;5113810;28;20421;-42
2022/09/22 05:50:34;;;;;;;64.85;55.83;;;;;;;3.65;100.00;102259.88;5114835;28;20020;-44
2022/09/22 05:53:08;;;;;;;62.38;53.38;;;;;;;3.71;100.00;102266.34;5115018;28;20027;-43
2022/09/22 05:55:33;;;;;;;66.85;56.20;;;;;;;3.73;100.00;102269.00;5114253;28;20024;-42
2022/09/22 05:57:59;;;;;;;69.60;59.25;;;;;;;3.85;100.00;102259.81;5114844;28;20030;-42
2022/09/22 06:00:25;;;;;;;63.75;56.65;;;;;;;3.85;100.00;102264.91;5114515;28;20027;-45
2022/09/22 06:02:51;;;;;;;83.18;70.63;;;;;;;3.90;100.00;102268.72;5113858;28;20084;-43
2022/09/22 06:05:16;;;;;;;117.78;100.80;;;;;;;3.99;100.00;102255.81;5114553;28;20417;-43
2022/09/22 06:07:42;;;;;;;86.22;73.55;;;;;;;4.07;100.00;102266.63;5114702;28;20069;-44
2022/09/22 06:10:10;;;;;;;83.30;70.50;;;;;;;4.07;100.00;102261.50;5113475;28;20019;-42
2022/09/22 06:12:36;;;;;;;78.25;65.25;;;;;;;4.12;100.00;102272.97;5114494;28;20031;-43
2022/09/22 06:15:02;;;;;;;88.55;69.53;;;;;;;4.28;100.00;102275.06;5114433;28;20382;-45
2022/09/22 06:17:27;;;;;;;90.30;76.00;;;;;;;4.35;100.00;102271.31;5113411;28;20047;-46
2022/09/22 06:19:52;;;;;;;95.55;78.40;;;;;;;4.51;100.00;102274.28;5114633;28;20020;-47
2022/09/22 06:22:18;;;;;;;95.22;79.22;;;;;;;4.57;100.00;102267.09;5114048;28;20031;-44
2022/09/22 06:24:43;;;;;;;97.00;78.35;;;;;;;4.65;100.00;102270.25;5113552;28;20446;-44
2022/09/22 06:27:09;;;;;;;91.18;77.78;;;;;;;4.75;100.00;102262.50;5114122;28;20063;-42
2022/09/22 06:29:35;;;;;;;89.45;76.07;;;;;;;4.86;100.00;102262.44;5114102;28;20107;-43
2022/09/22 06:32:00;;;;;;;88.00;75.20;;;;;;;4.98;100.00;102262.47;5113402;28;20020;-44
2022/09/22 06:34:26;;;;;;;81.05;71.72;;;;;;;5.03;100.00;102256.03;5113953;28;20149;-42
2022/09/22 06:36:53;;;;;;;84.45;74.05;;;;;;;5.15;100.00;102254.41;5114144;28;20398;-42
2022/09/22 06:39:18;;;;;;;87.70;73.13;;;;;;;5.27;100.00;102260.41;5112846;28;20032;-44
2022/09/22 06:41:43;;;;;;;78.90;70.00;;;;;;;5.30;100.00;102251.19;5113763;28;20020;-47
2022/09/22 06:44:11;;;;;;;80.15;69.85;;;;;;;5.41;100.00;102247.75;5113652;28;20028;-48
2022/09/22 06:46:37;;;;;;;79.80;67.93;;;;;;;5.49;100.00;102246.66;5113009;28;20023;-46
2022/09/22 06:49:03;;;;;;;81.32;69.15;;;;;;;5.59;100.00;102251.66;5113737;28;20386;-43
2022/09/22 06:51:34;;;;;;;77.20;68.57;;;;;;;5.71;100.00;102253.31;5112835;28;20019;-43
2022/09/22 06:54:02;;;;;;;84.13;71.00;;;;;;;5.86;100.00;102258.63;5113888;28;20072;-46
2022/09/22 06:56:34;;;;;;;78.85;68.28;;;;;;;5.96;100.00;102260.19;5114457;28;20067;-43
2022/09/22 06:58:59;;;;;;;79.47;69.63;;;;;;;6.06;100.00;102258.41;5116736;27;20459;-44
2022/09/22 07:01:29;;;;;;;85.65;70.88;;;;;;;6.22;100.00;102250.16;5111904;28;20031;-45
2022/09/22 07:03:54;;;;;;;79.07;66.22;;;;;;;6.29;100.00;102253.13;5112167;28;20035;-46
2022/09/22 07:06:20;;;;;;;79.25;67.03;;;;;;;6.41;100.00;102252.31;5111526;27;20031;-41
2022/09/22 07:08:47;;;;;;;76.07;65.10;;;;;;;6.54;100.00;102251.47;5121771;27;20023;-42
2022/09/22 07:11:16;;;;;;;72.40;64.60;;;;;;;6.57;100.00;102251.72;5127034;27;20059;-41
2022/09/22 07:13:42;;;;;;;71.80;64.00;;;;;;;6.71;100.00;102241.50;5117068;27;20032;-40
2022/09/22 07:16:09;;;;;;;68.65;61.05;;;;;;;6.88;100.00;102251.22;5116405;27;20027;-41
2022/09/22 07:18:42;;;;;;;70.43;62.38;;;;;;;6.97;100.00;102250.06;5129867;27;20027;-41
2022/09/22 07:21:11;;;;;;;66.95;58.95;;;;;;;7.06;100.00;102254.13;5118463;28;20019;-41
2022/09/22 07:23:36;;;;;;;64.15;56.45;;;;;;;7.22;100.00;102248.31;5121292;27;20411;-42
2022/09/22 07:26:04;;;;;;;68.70;61.00;;;;;;;7.36;100.00;102249.25;5118010;28;20455;-41
2022/09/22 07:28:32;;;;;;;64.07;57.13;;;;;;;7.51;100.00;102249.31;5114516;28;20111;-42
2022/09/22 07:31:08;;;;;;;67.18;59.65;;;;;;;7.69;100.00;102243.63;5118364;28;20023;-41
2022/09/22 07:33:35;;;;;;;62.53;55.42;;;;;;;7.79;100.00;102243.41;5121337;28;20103;-41
2022/09/22 07:36:11;;;;;;;65.30;52.70;;;;;;;8.05;100.00;102241.59;5117974;28;20024;-41
2022/09/22 07:38:38;;;;;;;58.17;47.50;;;;;;;8.35;100.00;102244.28;5113043;28;20027;-41
2022/09/22 07:41:10;;;;;;;63.03;52.85;;;;;;;8.43;100.00;102240.50;5118760;28;20084;-41
2022/09/22 07:43:37;;;;;;;56.75;44.78;;;;;;;8.60;100.00;102243.22;5119750;28;20070;-41
2022/09/22 07:46:02;;;;;;;56.75;48.45;;;;;;;8.64;100.00;102238.38;5126892;28;20019;-43
2022/09/22 07:48:35;;;;;;;51.22;44.90;;;;;;;8.86;100.00;102239.66;5115869;28;20112;-46
2022/09/22 07:51:00;;;;;;;56.17;46.75;;;;;;;8.90;100.00;102237.34;5124820;28;20081;-41
2022/09/22 07:53:26;;;;;;;49.70;41.00;;;;;;;9.11;100.00;102241.94;5115027;28;20371;-42
2022/09/22 07:55:51;;;;;;;50.83;38.90;;;;;;;9.34;100.00;102244.97;5123389;28;20026;-42
2022/09/22 07:58:16;;;;;;;50.22;38.22;;;;;;;9.64;100.00;102243.22;5117354;28;20034;-44
2022/09/22 08:00:41;;;;;;;46.63;39.08;;;;;;;9.62;100.00;102233.66;5134039;27;20065;-42
2022/09/22 08:03:07;;;;;;;48.30;39.17;;;;;;;9.85;100.00;102242.66;5130270;27;20512;-42
2022/09/22 08:05:32;;;;;;;50.67;41.95;;;;;;;9.82;100.00;102242.50;5121215;27;20035;-41
2022/09/22 08:07:59;;;;;;;41.63;36.97;;;;;;;10.07;100.00;102233.53;5117681;27;20053;-42
2022/09/22 08:10:25;;;;;;;37.95;33.03;;;;;;;10.23;99.14;102227.53;5118977;27;20102;-44
2022/09/22 08:12:56;;;;;;;37.05;32.22;;;;;;;10.45;97.05;102235.59;5133444;27;20134;-42
2022/09/22 08:15:22;;;;;;;38.83;34.63;;;;;;;10.37;98.63;102227.47;5124414;27;20049;-44
2022/09/22 08:17:48;;;;;;;39.78;33.20;;;;;;;10.58;98.76;102231.09;5126731;27;20023;-42
2022/09/22 08:20:13;;;;;;;36.55;30.58;;;;;;;10.74;96.75;102231.03;5122358;27;20051;-42
2022/09/22 08:22:42;;;;;;;36.92;31.45;;;;;;;10.83;97.52;102228.06;5117982;27;20064;-42
2022/09/22 08:25:11;;;;;;;34.55;28.27;;;;;;;10.96;92.77;102224.41;5125256;27;20068;-42
2022/09/22 08:27:38;;;;;;;35.00;30.90;;;;;;;11.13;95.54;102225.22;5128224;27;20058;-42
2022/09/22 08:30:04;;;;;;;42.20;35.73;;;;;;;11.06;98.20;102224.06;5124788;27;20754;-44
2022/09/22 08:32:30;;;;;;;28.88;25.58;;;;;;;11.39;92.79;102213.63;5122850;27;20035;-43
2022/09/22 08:34:56;;;;;;;31.52;25.88;;;;;;;11.53;90.97;102217.75;5119256;27;20019;-43
2022/09/22 08:37:23;;;;;;;38.35;29.85;;;;;;;11.50;95.17;102222.78;5115735;27;20020;-43
2022/09/22 08:39:48;;;;;;;35.65;29.17;;;;;;;11.83;92.47;102222.56;5128091;27;20402;-43
2022/09/22 08:42:21;;;;;;;32.70;28.17;;;;;;;11.95;90.61;102217.13;5119427;27;20023;-43
2022/09/22 08:44:56;;;;;;;34.45;25.73;;;;;;;12.19;89.25;102216.50;5125370;27;20359;-44
2022/09/22 08:53:17;;;;;;;29.50;24.60;;;;;;;12.84;87.64;102220.16;5131981;27;20070;-42
2022/09/22 08:55:47;;;;;;;27.08;23.88;;;;;;;12.99;82.55;102217.34;5126676;27;20019;-42
2022/09/22 08:58:26;;;;;;;26.25;23.20;;;;;;;13.21;83.69;102219.91;5127192;27;20505;-42
2022/09/22 09:01:21;;;;;;;28.10;22.52;;;;;;;13.31;83.63;102222.97;5117674;27;20100;-44
2022/09/22 09:03:58;;;;;;;29.52;25.17;;;;;;;13.61;82.42;102226.75;5117618;27;20039;-41
2022/09/22 09:07:09;;;;;;;24.23;21.53;;;;;;;13.69;80.15;102225.34;5131139;27;20439;-42
2022/09/22 09:09:47;;;;;;;28.13;24.42;;;;;;;14.09;80.88;102224.25;5049306;28;20029;-45
2022/09/22 09:12:32;;;;;;;28.00;22.73;;;;;;;14.25;80.41;102224.81;5106350;27;20371;-42
2022/09/22 09:15:05;;;;;;;24.25;20.58;;;;;;;14.42;76.39;102228.91;5120436;27;20474;-41
2022/09/22 09:17:34;;;;;;;29.70;22.55;;;;;;;14.57;75.66;102228.56;5125970;27;20020;-41
2022/09/22 09:20:18;;;;;;;27.33;21.33;;;;;;;14.77;76.10;102231.00;5118544;27;20030;-42
2022/09/22 09:22:54;;;;;;;27.35;21.15;;;;;;;15.10;74.96;102223.47;5131860;27;20023;-47
2022/09/22 09:25:40;;;;;;;25.55;19.58;;;;;;;15.35;74.94;102221.69;5114661;27;20023;-42
2022/09/22 09:28:19;;;;;;;25.55;19.90;;;;;;;15.83;70.14;102212.78;5128605;27;20055;-42
2022/09/22 09:30:51;;;;;;;24.40;20.45;;;;;;;16.28;68.54;102220.16;5119408;27;20047;-42
2022/09/22 09:33:28;;;;;;;23.63;18.65;;;;;;;17.22;68.15;102215.63;5127670;27;20027;-44
2022/09/22 09:35:53;;;;;;;22.17;19.83;;;;;;;17.25;62.92;102216.59;5122987;27;20108;-42
2022/09/22 09:38:28;;;;;;;23.80;17.85;;;;;;;18.16;63.27;102220.34;5125014;27;20047;-41
2022/09/22 09:41:12;;;;;;;22.00;17.60;;;;;;;18.39;63.07;102218.19;5116665;27;20050;-42
2022/09/22 09:43:41;;;;;;;24.98;16.48;;;;;;;18.56;56.12;102223.72;5123989;27;20459;-43
2022/09/22 09:46:43;;;;;;;21.50;15.27;;;;;;;19.05;59.61;102221.09;5129853;27;20031;-42
2022/09/22 09:49:08;;;;;;;17.73;14.95;;;;;;;19.36;51.44;102216.38;5120682;27;20026;-45
2022/09/22 09:51:37;;;;;;;18.85;15.27;;;;;;;19.53;51.09;102219.22;5125323;27;20106;-44
2022/09/22 09:54:06;;;;;;;23.30;14.43;;;;;;;19.54;53.23;102217.50;5129480;27;20026;-43
2022/09/22 09:56:35;;;;;;;18.90;14.55;;;;;;;19.85;49.76;102205.72;5117155;27;20023;-42
2022/09/22 10:01:52;;;;;;;15.25;11.45;;;;;;;19.91;48.32;102220.66;5132211;27;20073;-44
2022/09/22 10:04:36;;;;;;;15.77;10.90;;;;;;;19.97;52.58;102212.84;5118766;27;20023;-43
2022/09/22 10:07:23;;;;;;;12.90;10.02;;;;;;;20.77;51.28;102206.75;5118151;27;20561;-42
2022/09/22 10:09:49;;;;;;;;;;;;;;;21.23;49.75;102204.50;5121243;27;20040;-43
2022/09/22 10:12:26;;;;;;;15.33;9.40;;;;;;;21.02;45.70;102208.72;5129531;27;20462;-46
2022/09/22 10:14:54;;;;;;;10.27;7.30;;;;;;;20.77;41.79;102198.91;5117783;27;20092;-46
2022/09/22 10:17:32;;;;;;;15.07;8.13;;;;;;;20.87;42.17;102206.84;5125987;27;20015;-41
2022/09/22 10:20:34;;;;;;;9.65;6.53;;;;;;;21.03;45.23;102200.00;5123036;27;20027;-44
2022/09/22 10:23:20;;;;;;;11.50;7.15;;;;;;;21.05;43.54;102198.25;5117546;27;20059;-43
2022/09/22 10:25:48;;;;;;;11.73;7.83;;;;;;;20.64;40.55;102195.25;5122962;27;20480;-42
2022/09/22 10:28:18;;;;;;;9.52;6.68;;;;;;;21.01;42.28;102188.59;5130846;27;20080;-45
2022/09/22 10:30:56;;;;;;;8.95;5.45;;;;;;;21.06;40.42;102186.03;5129165;27;20027;-45
2022/09/22 10:33:22;;;;;;;10.00;5.72;;;;;;;20.85;38.87;102187.63;5116605;27;20028;-44
2022/09/22 10:36:08;;;;;;;10.70;5.60;;;;;;;21.10;42.64;102181.69;5125366;27;20034;-46
2022/09/22 10:38:40;;;;;;;9.75;5.20;;;;;;;21.52;38.71;102191.56;5114013;27;20035;-48
2022/09/22 10:41:13;;;;;;;9.48;4.68;;;;;;;21.24;39.25;102179.16;5113255;28;20119;-42
2022/09/22 10:43:53;;;;;;;10.02;5.00;;;;;;;22.08;39.67;102181.34;5113099;27;20360;-43
2022/09/22 10:46:48;;;;;;;10.35;4.00;;;;;;;22.31;39.07;102168.25;5113989;27;20028;-47
2022/09/22 10:49:32;;;;;;;22.77;4.25;;;;;;;22.06;36.48;102174.31;5071488;28;20054;-43
2022/09/22 10:52:23;;;;;;;7.85;4.53;;;;;;;22.25;39.48;102168.25;5111871;28;20467;-47
2022/09/22 10:54:54;;;;;;;9.52;3.88;;;;;;;22.90;36.54;102170.94;5113440;28;20023;-46
2022/09/22 10:57:51;;;;;;;7.32;3.20;;;;;;;22.81;37.29;102170.94;5112292;27;20186;-44
2022/09/22 11:00:19;;;;;;;8.32;3.88;;;;;;;22.61;34.88;102169.19;5090858;28;20482;-42
2022/09/22 11:03:11;;;;;;;6.85;4.07;;;;;;;22.91;36.06;102170.06;5125280;27;20129;-44
2022/09/22 11:14:10;;;;;;;9.25;4.43;;;;;;;22.06;35.60;102153.31;5134288;27;20038;-47
2022/09/22 11:16:52;;;;;;;7.95;3.90;;;;;;;22.45;35.92;102155.19;5134208;27;20031;-44
2022/09/22 11:19:17;;;;;;;8.25;3.50;;;;;;;22.97;33.75;102156.03;5132898;27;20530;-47
2022/09/22 11:21:52;;;;;;;8.70;4.13;;;;;;;22.73;34.90;102152.53;5134107;27;20069;-48
2022/09/22 11:24:56;;;;;;;8.23;3.47;;;;;;;22.98;36.44;102153.41;5133651;27;20378;-47
2022/09/22 11:27:54;;;;;;;5.85;2.78;;;;;;;23.53;34.65;102148.91;5132939;27;20038;-46
2022/09/22 11:30:21;;;;;;;7.70;3.28;;;;;;;23.41;33.18;102147.22;5133602;28;20038;-49
2022/09/22 11:33:20;;;;;;;7.82;3.17;;;;;;;23.82;35.06;102140.00;5133193;27;20031;-48
2022/09/22 11:35:54;;;;;;;7.00;3.00;;;;;;;23.93;32.75;102137.38;5138215;27;20023;-46
2022/09/22 11:38:28;;;;;;;7.80;3.60;;;;;;;23.90;33.00;102146.16;5137851;27;20416;-48
2022/09/22 11:41:29;;;;;;;5.70;2.60;;;;;;;24.25;32.47;102134.50;5137175;27;20138;-45
2022/09/22 11:44:04;;;;;;;7.93;3.85;;;;;;;23.26;32.38;102131.47;5138063;27;20103;-45